YLREYBMA

Guest
Details From YLRE - Longreach
To YBMA - Mount Isa
Flight Number -
Tags generated
Created
Modified
Stats Distance 315 nm / 584 km
Max Altitude 32,300 ft / 9,845 m
Waypoints 5
Social Downloads 4
Likes 0
Share VATSIM

Download

Looking for another format? Having issues loading an existing format? Contact us
Advertisement - Login to hide

Notes

Basic altitude profile: - Ascent Rate: 2500ft/min - Ascent Speed: 250kts - Cruise Altitude: 340ft - Cruise Speed: 400kts - Descent Rate: 1500ft/min - Descent Speed: 250kts Options: - Use NATs: yes - Use PACOTS: yes - Use low airways: no - Use high airways: yes

Route

YLRE LRE J89 MA YBMA

ID Type Via Altitude Latitude Longitude Leg Dist Tot Dist Heading (true) Name
O YLRE APT - 0 ft / 0 m -23.43489˚ 144.27681˚ - 0 nm - Longreach
LRE VOR - 200 ft / 61 m -23.42444˚ 144.28222˚ 0 nm 0 nm 25° / 25° LONGREACH VOR
SARIK FIX J89 (AWY-HI) 32,300 ft / 9,845 m -22.00889˚ 141.76250˚ 163 nm 164 nm 301° / 302° -
MA VOR J89 (AWY-HI) 18,000 ft / 5,486 m -20.66472˚ 139.48583˚ 150 nm 314 nm 302° / 303° MOUNT ISA VOR-DME
O YBMA APT - 0 ft / 0 m -20.66637˚ 139.48844˚ 0 nm 315 nm 124° / 124° Mount Isa

Altitude Profile

Advertisement - Login to hide

Weather


0- 5 10 15 20 25 30 35+ Temperature / ° C

Clouds and Precipitation
Forecast for 2017-12-14 00:00 UTC. Updated 2 hours ago

Ground ~20,000 ft ~40,000 ft Winds

YLRE

Details ICAO YLRE (LRE)
Name Longreach
Region Australia
Timezone Australia/Brisbane (UTC+10.0)
Stats Elevation 627 ft / 191 m (AMSL)
Location -23.434892° 144.276806°
Runways 2
Magnetic Variation 7.501° E

METAR

YLRE 132000Z AUTO 03006KT 9999 // NCD 24/11 Q1011

Decode

TAF

Not found

Departure Runways

ID Width Length Bearing (true) Bearing (mag) Surface Threshold Offset Overrun Length
04 82 ft / 25 m 6,351 ft / 1,936 m 46.40° 38.90° Asphalt 0 ft / 0 m 200 ft / 61 m
09 151 ft / 46 m 2,490 ft / 759 m 93.15° 85.65° Dirt 0 ft / 0 m 0 ft / 0 m
22 82 ft / 25 m 6,351 ft / 1,936 m 226.40° 218.90° Asphalt 0 ft / 0 m 210 ft / 64 m
27 151 ft / 46 m 2,490 ft / 759 m 273.14° 265.64° Dirt 0 ft / 0 m 0 ft / 0 m

YBMA

Details ICAO YBMA (ISA)
Name Mount Isa
Region Australia
Timezone Australia/Brisbane (UTC+10.0)
Stats Elevation 1,121 ft / 342 m (AMSL)
Location -20.666369° 139.488443°
Runways 1
Magnetic Variation 5.692° E

METAR

YBMA 132030Z AUTO 00000KT 9999 // NCD 21/11 Q1010

Decode

TAF

TAF TAF YBMA 131105Z 1312/1324 05008KT CAVOK FM131600 35004KT CAVOK

Decode

Destination Runways

ID Width Length Bearing (true) Bearing (mag) Surface Threshold Offset Overrun Length
16 148 ft / 45 m 8,859 ft / 2,700 m 167.80° 162.11° Asphalt 210 ft / 64 m 79 ft / 24 m
34 148 ft / 45 m 8,859 ft / 2,700 m 347.80° 342.11° Asphalt 213 ft / 65 m 49 ft / 15 m

Popular Alternatives